createdAt,value
2023-02-09T00:00:07.497Z,55.11
2023-02-09T00:02:52.481Z,54.03
2023-02-09T00:05:37.500Z,54.49
2023-02-09T00:08:22.301Z,54.42
2023-02-09T00:11:07.294Z,54.01
2023-02-09T00:13:52.110Z,53.96
2023-02-09T00:16:37.056Z,55.48
2023-02-09T00:19:22.399Z,53.63
2023-02-09T00:22:07.293Z,53.58
2023-02-09T00:24:52.266Z,53.48
2023-02-09T00:27:37.246Z,54.56
2023-02-09T00:30:22.230Z,54.26
2023-02-09T00:33:07.291Z,54.73
2023-02-09T00:35:52.218Z,54.99
2023-02-09T00:38:37.011Z,55.85
2023-02-09T00:41:21.838Z,53.94
2023-02-09T00:44:06.705Z,54.18
2023-02-09T00:46:51.638Z,54.97
2023-02-09T00:49:36.712Z,55.32
2023-02-09T00:52:21.572Z,55.68
2023-02-09T00:55:06.568Z,56.74
2023-02-09T00:57:51.505Z,54.76
2023-02-09T01:00:36.388Z,55.13
2023-02-09T01:03:21.204Z,56.13
2023-02-09T01:06:06.107Z,56.94
2023-02-09T01:08:51.046Z,55.39
2023-02-09T01:11:35.985Z,56.09
2023-02-09T01:14:20.790Z,54.46
2023-02-09T01:17:05.826Z,54.60
2023-02-09T01:19:50.733Z,56.22
2023-02-09T01:22:35.617Z,55.24
2023-02-09T01:25:20.572Z,55.30
2023-02-09T01:28:05.330Z,55.27
2023-02-09T01:30:50.370Z,57.53
2023-02-09T01:33:35.682Z,56.26
2023-02-09T01:36:20.581Z,55.47
2023-02-09T01:39:05.581Z,58.44
2023-02-09T01:41:50.497Z,57.53
2023-02-09T01:44:35.564Z,58.62
2023-02-09T01:47:20.447Z,57.18
2023-02-09T01:50:05.439Z,55.54
2023-02-09T01:52:50.252Z,55.91
2023-02-09T01:55:35.274Z,59.12
2023-02-09T01:58:20.095Z,59.81
2023-02-09T02:01:05.247Z,59.30
2023-02-09T02:03:50.261Z,58.75
2023-02-09T02:06:35.166Z,58.80
2023-02-09T02:09:20.176Z,59.12
2023-02-09T02:12:04.972Z,58.18
2023-02-09T02:14:50.064Z,58.63
2023-02-09T02:17:35.337Z,58.30
2023-02-09T02:20:20.423Z,58.30
2023-02-09T02:23:05.450Z,56.77
2023-02-09T02:25:50.374Z,60.30
2023-02-09T02:28:35.305Z,59.26
2023-02-09T02:31:20.303Z,59.40
2023-02-09T02:34:05.494Z,60.61
2023-02-09T02:36:50.468Z,59.10
2023-02-09T02:39:35.453Z,60.72
2023-02-09T02:42:20.404Z,60.71
2023-02-09T02:45:05.356Z,60.20
2023-02-09T02:47:50.271Z,60.77
2023-02-09T02:50:35.159Z,60.24
2023-02-09T02:53:19.951Z,60.94
2023-02-09T02:56:04.883Z,60.82
2023-02-09T02:58:49.706Z,60.89
2023-02-09T03:01:34.691Z,59.63
2023-02-09T03:04:19.727Z,60.44
2023-02-09T03:07:04.536Z,60.21
2023-02-09T03:09:49.499Z,59.46
2023-02-09T03:12:34.377Z,59.49
2023-02-09T03:15:19.249Z,60.56
2023-02-09T03:18:04.219Z,60.30
2023-02-09T03:20:49.115Z,59.35
2023-02-09T03:23:34.169Z,61.67
2023-02-09T03:26:19.104Z,60.15
2023-02-09T03:29:04.054Z,60.50
2023-02-09T03:31:48.860Z,60.63
2023-02-09T03:34:33.675Z,61.48
2023-02-09T03:37:18.677Z,59.76
2023-02-09T03:40:03.568Z,61.37
2023-02-09T03:42:48.438Z,60.17
2023-02-09T03:45:33.440Z,59.55
2023-02-09T03:48:18.429Z,59.87
2023-02-09T03:51:03.443Z,60.39
2023-02-09T03:53:48.309Z,59.24
2023-02-09T03:56:33.136Z,59.16
2023-02-09T03:59:17.974Z,60.43
2023-02-09T04:02:02.992Z,59.89
2023-02-09T04:04:47.890Z,58.73
2023-02-09T04:07:32.860Z,61.10
2023-02-09T04:10:17.844Z,59.78
2023-02-09T04:13:02.916Z,61.98
2023-02-09T04:15:47.747Z,60.29
2023-02-09T04:18:32.649Z,60.17
2023-02-09T04:21:17.487Z,59.03
2023-02-09T04:24:02.476Z,60.18
2023-02-09T04:26:47.409Z,61.23
2023-02-09T04:29:32.153Z,60.05
2023-02-09T04:32:17.092Z,59.19
2023-02-09T04:35:01.954Z,60.47
2023-02-09T04:37:46.894Z,59.55
2023-02-09T04:40:31.811Z,59.60
2023-02-09T04:43:16.686Z,60.26
2023-02-09T04:46:01.810Z,59.97
2023-02-09T04:48:47.114Z,60.46
2023-02-09T04:51:31.898Z,59.20
2023-02-09T04:54:16.794Z,60.51
2023-02-09T04:57:01.773Z,60.30
2023-02-09T04:59:46.595Z,58.68
2023-02-09T05:02:31.650Z,59.76
2023-02-09T05:05:16.537Z,60.78
2023-02-09T05:08:01.339Z,60.27
2023-02-09T05:10:46.507Z,60.86
2023-02-09T05:13:31.622Z,60.55
2023-02-09T05:16:16.516Z,61.77
2023-02-09T05:19:01.318Z,60.26
2023-02-09T05:21:46.255Z,61.49
2023-02-09T05:24:30.998Z,62.02
2023-02-09T05:27:15.751Z,60.79
2023-02-09T05:30:00.641Z,61.10
2023-02-09T05:32:45.558Z,60.20
2023-02-09T05:35:30.558Z,60.90
2023-02-09T05:38:15.379Z,61.65
2023-02-09T05:41:00.216Z,61.40
2023-02-09T05:43:45.031Z,60.87
2023-02-09T05:46:29.933Z,61.33
2023-02-09T05:49:14.701Z,61.03
2023-02-09T05:51:59.650Z,62.90
2023-02-09T05:54:44.532Z,62.64
2023-02-09T05:57:29.597Z,63.60
2023-02-09T06:00:14.478Z,62.91
2023-02-09T06:03:00.685Z,62.42
2023-02-09T06:05:45.596Z,61.56
2023-02-09T06:08:30.617Z,62.31
2023-02-09T06:11:15.708Z,62.10
2023-02-09T06:14:00.672Z,60.81
2023-02-09T06:16:45.684Z,63.08
2023-02-09T06:19:30.721Z,62.46
2023-02-09T06:22:15.655Z,63.71
2023-02-09T06:25:00.632Z,61.34
2023-02-09T06:27:45.575Z,61.48
2023-02-09T06:30:32.794Z,61.54
2023-02-09T06:33:18.016Z,60.53
2023-02-09T06:36:02.821Z,60.51
2023-02-09T06:38:47.707Z,60.34
2023-02-09T06:41:32.737Z,61.91
2023-02-09T06:44:17.702Z,60.62
2023-02-09T06:47:02.684Z,60.50
2023-02-09T06:49:47.689Z,62.78
2023-02-09T06:52:32.502Z,63.23
2023-02-09T06:55:17.478Z,63.11
2023-02-09T06:58:02.288Z,64.50
2023-02-09T07:00:47.443Z,61.92
2023-02-09T07:03:32.558Z,65.52
2023-02-09T07:06:17.446Z,63.59
2023-02-09T07:09:02.691Z,64.08
2023-02-09T07:11:47.553Z,64.60
2023-02-09T07:14:32.652Z,64.64
2023-02-09T07:17:17.508Z,62.13
2023-02-09T07:20:02.434Z,63.33
2023-02-09T07:22:47.286Z,61.98
2023-02-09T07:25:32.265Z,60.50
2023-02-09T07:28:17.006Z,61.73
2023-02-09T07:31:01.857Z,63.78
2023-02-09T07:33:47.091Z,63.07
2023-02-09T07:36:31.997Z,61.90
2023-02-09T07:39:17.496Z,64.16
2023-02-09T07:42:03.014Z,64.23
2023-02-09T07:44:47.895Z,63.02
2023-02-09T07:47:32.871Z,59.96
2023-02-09T07:50:20.043Z,61.93
2023-02-09T07:53:05.365Z,60.05
2023-02-09T07:55:50.240Z,60.48
2023-02-09T07:58:35.040Z,60.80
2023-02-09T08:01:20.060Z,61.63
2023-02-09T08:04:05.502Z,61.68
2023-02-09T08:06:50.301Z,61.58
2023-02-09T08:09:35.490Z,61.41
2023-02-09T08:12:20.611Z,60.35
2023-02-09T08:15:05.462Z,59.97
2023-02-09T08:17:50.292Z,61.75
2023-02-09T08:20:35.188Z,60.84
2023-02-09T08:23:20.024Z,60.85
2023-02-09T08:26:04.867Z,61.60
2023-02-09T08:28:49.709Z,61.84
2023-02-09T08:31:34.671Z,61.61
2023-02-09T08:34:20.001Z,62.56
2023-02-09T08:37:04.906Z,61.93
2023-02-09T08:39:49.739Z,60.13
2023-02-09T08:42:34.601Z,60.74
2023-02-09T08:45:19.462Z,59.94
2023-02-09T08:48:04.320Z,61.30
2023-02-09T08:50:49.223Z,60.68
2023-02-09T08:53:33.936Z,60.42
2023-02-09T08:56:18.974Z,61.79
2023-02-09T08:59:03.883Z,60.99
2023-02-09T09:01:48.729Z,58.78
2023-02-09T09:04:33.505Z,58.08
2023-02-09T09:07:18.356Z,56.75
2023-02-09T09:10:03.215Z,57.00
2023-02-09T09:12:48.157Z,56.82
2023-02-09T09:15:33.100Z,55.57
2023-02-09T09:18:17.870Z,56.72
2023-02-09T09:21:02.902Z,58.07
2023-02-09T09:23:47.658Z,57.83
2023-02-09T09:26:32.736Z,56.03
2023-02-09T09:29:17.456Z,57.54
2023-02-09T09:32:02.620Z,56.96
2023-02-09T09:34:47.395Z,56.23
2023-02-09T09:37:32.360Z,56.50
2023-02-09T09:40:17.262Z,58.51
2023-02-09T09:43:02.108Z,58.44
2023-02-09T09:45:47.308Z,57.89
2023-02-09T09:48:32.319Z,57.24
2023-02-09T09:51:17.230Z,56.05
2023-02-09T09:54:02.114Z,55.43
2023-02-09T09:56:46.923Z,57.81
2023-02-09T09:59:31.846Z,55.99
2023-02-09T10:02:16.832Z,56.27
2023-02-09T10:05:01.656Z,55.47
2023-02-09T10:07:46.596Z,54.74
2023-02-09T10:10:31.671Z,54.92
2023-02-09T10:13:16.472Z,53.60
2023-02-09T10:16:01.357Z,51.80
2023-02-09T10:18:46.265Z,51.78
2023-02-09T10:21:31.191Z,54.58
2023-02-09T10:24:16.081Z,51.35
2023-02-09T10:27:01.065Z,49.64
2023-02-09T10:29:46.055Z,51.96
2023-02-09T10:32:30.901Z,55.29
2023-02-09T10:35:15.815Z,53.90
2023-02-09T10:38:00.769Z,53.38
2023-02-09T10:40:45.716Z,54.65
2023-02-09T10:43:30.614Z,53.65
2023-02-09T10:46:15.519Z,54.53
2023-02-09T10:49:00.880Z,54.26
2023-02-09T10:51:45.705Z,54.50
2023-02-09T10:54:30.500Z,54.69
2023-02-09T10:57:15.449Z,52.07
2023-02-09T11:00:00.457Z,53.72
2023-02-09T11:02:45.267Z,54.41
2023-02-09T11:05:30.192Z,53.72
2023-02-09T11:08:15.065Z,53.39
2023-02-09T11:11:00.007Z,54.08
2023-02-09T11:13:44.922Z,53.69
2023-02-09T11:16:29.934Z,53.30
2023-02-09T11:19:14.779Z,53.33
2023-02-09T11:21:59.694Z,52.76
2023-02-09T11:24:44.579Z,51.77
2023-02-09T11:27:29.445Z,53.21
2023-02-09T11:30:14.319Z,52.50
2023-02-09T11:32:59.170Z,51.00
2023-02-09T11:35:44.172Z,51.79
2023-02-09T11:38:28.917Z,50.54
2023-02-09T11:41:16.766Z,48.84
2023-02-09T11:44:01.729Z,50.24
2023-02-09T11:46:46.499Z,51.47
2023-02-09T11:49:31.410Z,50.17
2023-02-09T11:52:16.134Z,49.83
2023-02-09T11:55:01.012Z,51.49
2023-02-09T11:57:45.876Z,50.43
2023-02-09T12:00:30.828Z,49.87
2023-02-09T12:03:15.752Z,49.95
2023-02-09T12:06:00.928Z,50.33
2023-02-09T12:08:45.744Z,48.35
2023-02-09T12:11:30.527Z,48.76
2023-02-09T12:14:15.444Z,49.81
2023-02-09T12:17:00.301Z,49.40
2023-02-09T12:19:45.231Z,47.69
2023-02-09T12:22:30.045Z,46.48
2023-02-09T12:25:15.040Z,48.38
2023-02-09T12:27:59.947Z,48.79
2023-02-09T12:30:45.167Z,48.85
2023-02-09T12:33:30.163Z,46.92
2023-02-09T12:36:15.089Z,45.67
2023-02-09T12:39:07.145Z,45.33
2023-02-09T12:41:52.624Z,45.91
2023-02-09T12:44:37.309Z,44.61
2023-02-09T12:47:22.109Z,45.69
2023-02-09T12:50:06.942Z,44.36
2023-02-09T12:52:51.882Z,44.08
2023-02-09T12:55:36.891Z,43.76
2023-02-09T12:58:21.812Z,43.80
2023-02-09T13:01:06.791Z,44.84
2023-02-09T13:03:51.786Z,45.78
2023-02-09T13:06:36.617Z,44.77
2023-02-09T13:09:21.413Z,43.16
2023-02-09T13:12:06.366Z,42.97
2023-02-09T13:14:51.750Z,41.41
2023-02-09T13:17:36.695Z,41.91
2023-02-09T13:20:21.840Z,40.67
2023-02-09T13:23:06.686Z,38.53
2023-02-09T13:25:51.587Z,34.00
2023-02-09T13:28:36.354Z,34.69
2023-02-09T13:31:21.215Z,34.96
2023-02-09T13:34:06.125Z,37.51
2023-02-09T13:36:50.938Z,37.12
2023-02-09T13:39:35.858Z,36.72
2023-02-09T13:42:20.713Z,35.58
2023-02-09T13:45:05.882Z,37.21
2023-02-09T13:47:50.694Z,40.13
2023-02-09T13:50:35.716Z,39.29
2023-02-09T13:53:22.346Z,40.39
2023-02-09T13:56:08.365Z,37.46
2023-02-09T13:58:53.414Z,38.27
2023-02-09T14:01:38.439Z,36.45
2023-02-09T14:04:23.258Z,35.55
2023-02-09T14:07:08.224Z,35.62
2023-02-09T14:09:53.018Z,34.60
2023-02-09T14:12:37.898Z,34.40
2023-02-09T14:15:22.791Z,34.38
2023-02-09T14:18:07.775Z,33.14
2023-02-09T14:20:52.635Z,32.27
2023-02-09T14:23:37.610Z,30.65
2023-02-09T14:26:22.413Z,31.53
2023-02-09T14:29:07.328Z,30.66
2023-02-09T14:31:52.273Z,29.32
2023-02-09T14:34:37.285Z,29.41
2023-02-09T14:37:21.981Z,30.30
2023-02-09T14:40:07.079Z,29.55
2023-02-09T14:42:52.600Z,29.61
2023-02-09T14:45:37.376Z,28.66
2023-02-09T14:48:22.388Z,28.87
2023-02-09T14:51:07.165Z,28.43
2023-02-09T14:53:52.148Z,28.39
2023-02-09T14:56:36.941Z,27.80
2023-02-09T14:59:22.006Z,27.65
2023-02-09T15:02:06.724Z,28.66
2023-02-09T15:04:51.715Z,27.72
2023-02-09T15:07:36.520Z,26.67
2023-02-09T15:10:21.521Z,24.67
2023-02-09T15:13:06.529Z,25.72
2023-02-09T15:15:51.523Z,26.49
2023-02-09T15:18:36.414Z,24.64
2023-02-09T15:21:21.313Z,21.77
2023-02-09T15:24:06.329Z,22.06
2023-02-09T15:26:51.029Z,21.06
2023-02-09T15:29:36.008Z,22.00
2023-02-09T15:32:20.982Z,21.61
2023-02-09T15:35:06.008Z,21.10
2023-02-09T15:37:50.944Z,20.88
2023-02-09T15:40:35.636Z,20.85
2023-02-09T15:43:20.521Z,21.25
2023-02-09T15:46:05.350Z,23.82
2023-02-09T15:48:50.385Z,25.62
2023-02-09T15:51:35.135Z,26.47
2023-02-09T15:54:20.021Z,26.83
2023-02-09T15:57:04.946Z,26.56
2023-02-09T15:59:49.885Z,27.86
2023-02-09T16:02:34.695Z,27.58
2023-02-09T16:05:19.468Z,27.92
2023-02-09T16:08:04.427Z,30.10
2023-02-09T16:10:49.550Z,30.85
2023-02-09T16:13:34.790Z,31.56
2023-02-09T16:16:19.699Z,30.61
2023-02-09T16:19:04.677Z,30.98
2023-02-09T16:21:49.667Z,32.01
2023-02-09T16:24:34.540Z,36.07
2023-02-09T16:27:19.415Z,37.24
2023-02-09T16:30:04.186Z,35.12
2023-02-09T16:32:49.226Z,32.97
2023-02-09T16:35:34.025Z,33.07
2023-02-09T16:38:18.869Z,32.85
2023-02-09T16:41:03.722Z,34.12
2023-02-09T16:43:48.699Z,32.24
2023-02-09T16:46:33.729Z,33.42
2023-02-09T16:49:18.675Z,34.06
2023-02-09T16:52:03.649Z,34.24
2023-02-09T16:54:48.373Z,34.31
2023-02-09T16:57:33.268Z,34.36
2023-02-09T17:00:18.065Z,33.83
2023-02-09T17:03:02.947Z,34.67
2023-02-09T17:05:48.162Z,34.89
2023-02-09T17:08:33.182Z,38.46
2023-02-09T17:11:18.165Z,35.94
2023-02-09T17:14:02.925Z,34.84
2023-02-09T17:16:47.934Z,34.08
2023-02-09T17:19:47.028Z,33.30
2023-02-09T17:22:32.777Z,34.44
2023-02-09T17:25:17.585Z,34.32
2023-02-09T17:28:02.497Z,33.94
2023-02-09T17:30:47.364Z,33.95
2023-02-09T17:33:32.580Z,34.24
2023-02-09T17:36:26.246Z,33.60
2023-02-09T17:39:11.981Z,33.84
2023-02-09T17:41:56.766Z,34.61
2023-02-09T17:44:46.292Z,33.89
2023-02-09T17:47:31.807Z,35.50
2023-02-09T17:50:16.613Z,35.12
2023-02-09T17:53:01.559Z,34.24
2023-02-09T17:55:46.459Z,32.67
2023-02-09T17:58:31.565Z,33.48
2023-02-09T18:01:16.505Z,32.83
2023-02-09T18:04:01.284Z,31.23
2023-02-09T18:06:46.379Z,32.43
2023-02-09T18:09:31.240Z,30.69
2023-02-09T18:12:16.175Z,29.49
2023-02-09T18:15:01.044Z,29.86
2023-02-09T18:17:46.026Z,29.24
2023-02-09T18:20:30.903Z,32.11
2023-02-09T18:23:15.957Z,32.12
2023-02-09T18:26:00.973Z,32.37
2023-02-09T18:28:45.802Z,33.30
2023-02-09T18:31:30.639Z,32.20
2023-02-09T18:34:15.439Z,31.45
2023-02-09T18:37:00.276Z,29.61
2023-02-09T18:39:45.026Z,30.03
2023-02-09T18:42:30.067Z,29.08
2023-02-09T18:45:15.005Z,29.89
2023-02-09T18:47:59.864Z,30.30
2023-02-09T18:50:45.345Z,30.15
2023-02-09T18:53:30.291Z,30.23
2023-02-09T18:56:15.330Z,30.24
2023-02-09T18:59:00.216Z,30.90
2023-02-09T19:01:45.366Z,32.03
2023-02-09T19:04:30.228Z,31.98
2023-02-09T19:07:15.094Z,31.88
2023-02-09T19:09:59.862Z,31.50
2023-02-09T19:12:44.856Z,29.92
2023-02-09T19:15:29.680Z,30.05
2023-02-09T19:18:14.445Z,28.55
2023-02-09T19:20:59.271Z,28.45
2023-02-09T19:23:44.216Z,28.71
2023-02-09T19:26:29.189Z,28.28
2023-02-09T19:29:14.115Z,29.25
2023-02-09T19:31:58.990Z,27.66
2023-02-09T19:34:43.997Z,28.39
2023-02-09T19:37:28.901Z,29.26
2023-02-09T19:40:13.716Z,29.37
2023-02-09T19:42:58.659Z,29.22
2023-02-09T19:45:43.728Z,28.92
2023-02-09T19:48:28.717Z,29.27
2023-02-09T19:51:13.574Z,28.47
2023-02-09T19:53:58.579Z,28.47
2023-02-09T19:56:43.652Z,28.25
2023-02-09T19:59:28.466Z,28.41
2023-02-09T20:02:13.414Z,29.77
2023-02-09T20:04:58.328Z,30.91
2023-02-09T20:07:43.252Z,30.69
2023-02-09T20:10:28.057Z,31.33
2023-02-09T20:13:12.877Z,30.08
2023-02-09T20:15:57.885Z,30.45
2023-02-09T20:18:42.749Z,30.52
2023-02-09T20:21:27.669Z,29.99
2023-02-09T20:24:12.588Z,29.30
2023-02-09T20:26:57.446Z,30.20
2023-02-09T20:29:42.448Z,28.11
2023-02-09T20:32:27.433Z,27.32
2023-02-09T20:35:12.480Z,27.73
2023-02-09T20:37:57.308Z,27.50
2023-02-09T20:40:42.251Z,27.53
2023-02-09T20:43:27.042Z,27.43
2023-02-09T20:46:12.015Z,26.15
2023-02-09T20:48:56.881Z,24.94
2023-02-09T20:51:41.856Z,25.25
2023-02-09T20:54:26.746Z,24.36
2023-02-09T20:57:11.683Z,23.92
2023-02-09T20:59:56.653Z,24.50
2023-02-09T21:02:41.627Z,24.27
2023-02-09T21:05:27.176Z,24.64
2023-02-09T21:08:12.108Z,23.86
2023-02-09T21:10:57.167Z,24.58
2023-02-09T21:13:41.981Z,24.45
2023-02-09T21:16:26.886Z,24.56
2023-02-09T21:19:11.830Z,24.38
2023-02-09T21:21:56.673Z,25.04
2023-02-09T21:24:41.774Z,24.63
2023-02-09T21:27:26.986Z,24.88
2023-02-09T21:30:11.873Z,24.75
2023-02-09T21:32:56.798Z,25.29
2023-02-09T21:35:41.707Z,24.80
2023-02-09T21:38:26.482Z,24.35
2023-02-09T21:41:11.338Z,24.13
2023-02-09T21:43:56.437Z,25.36
2023-02-09T21:46:41.390Z,24.24
2023-02-09T21:49:26.196Z,22.78
2023-02-09T21:52:11.098Z,22.27
2023-02-09T21:54:56.034Z,22.73
2023-02-09T21:57:40.839Z,22.91
2023-02-09T22:00:25.892Z,22.14
2023-02-09T22:03:10.661Z,21.70
2023-02-09T22:05:55.680Z,21.53
2023-02-09T22:08:40.733Z,21.28
2023-02-09T22:11:25.678Z,19.79
2023-02-09T22:14:10.665Z,19.43
2023-02-09T22:16:55.772Z,19.06
2023-02-09T22:19:40.642Z,19.60
2023-02-09T22:22:25.353Z,18.44
2023-02-09T22:25:10.255Z,17.79
2023-02-09T22:27:55.104Z,18.30
2023-02-09T22:30:40.063Z,18.47
2023-02-09T22:33:25.006Z,20.19
2023-02-09T22:36:09.812Z,21.34
2023-02-09T22:38:54.734Z,21.56
2023-02-09T22:41:39.546Z,22.11
2023-02-09T22:44:26.392Z,21.66
2023-02-09T22:47:11.681Z,21.47
2023-02-09T22:49:56.603Z,21.73
2023-02-09T22:52:41.508Z,21.05
2023-02-09T22:55:26.412Z,20.62
2023-02-09T22:58:11.434Z,19.61
2023-02-09T23:00:56.501Z,20.05
2023-02-09T23:03:41.602Z,19.63
2023-02-09T23:06:28.720Z,21.07
2023-02-09T23:09:13.714Z,20.66
2023-02-09T23:11:58.582Z,20.76
2023-02-09T23:14:43.447Z,20.61
2023-02-09T23:17:28.330Z,21.03
2023-02-09T23:20:13.178Z,20.43
2023-02-09T23:22:58.004Z,19.77
2023-02-09T23:25:42.924Z,20.49
2023-02-09T23:28:27.783Z,20.09
2023-02-09T23:31:12.597Z,20.13
2023-02-09T23:33:57.435Z,20.07
2023-02-09T23:36:42.433Z,20.82
2023-02-09T23:39:27.429Z,20.72
2023-02-09T23:42:12.369Z,20.16
2023-02-09T23:44:57.133Z,20.69
2023-02-09T23:47:42.122Z,21.00
2023-02-09T23:50:26.957Z,20.37
2023-02-09T23:53:11.883Z,19.64
2023-02-09T23:55:56.806Z,20.43
2023-02-09T23:58:41.732Z,20.21
